sensor_id;sensor_type;location;lat;lon;timestamp;pressure;altitude;pressure_sealevel;temperature;humidity
8160;BME280;27404;52.398;9.646;2023-05-09T00:00:47;101273.22;;;10.45;100.00
8160;BME280;27404;52.398;9.646;2023-05-09T00:03:12;101272.00;;;10.41;100.00
8160;BME280;27404;52.398;9.646;2023-05-09T00:05:38;101267.75;;;10.38;100.00
8160;BME280;27404;52.398;9.646;2023-05-09T00:08:04;101276.59;;;10.41;100.00
8160;BME280;27404;52.398;9.646;2023-05-09T00:10:30;101276.81;;;10.32;100.00
8160;BME280;27404;52.398;9.646;2023-05-09T00:12:55;101279.41;;;10.20;100.00
8160;BME280;27404;52.398;9.646;2023-05-09T00:15:22;101266.22;;;10.11;100.00
8160;BME280;27404;52.398;9.646;2023-05-09T00:17:48;101271.44;;;10.19;100.00
8160;BME280;27404;52.398;9.646;2023-05-09T00:20:14;101264.94;;;10.20;100.00
8160;BME280;27404;52.398;9.646;2023-05-09T00:22:40;101261.38;;;10.13;100.00
8160;BME280;27404;52.398;9.646;2023-05-09T00:25:09;101258.41;;;10.14;100.00
8160;BME280;27404;52.398;9.646;2023-05-09T00:27:35;101253.56;;;10.16;100.00
8160;BME280;27404;52.398;9.646;2023-05-09T00:30:02;101254.66;;;10.08;100.00
8160;BME280;27404;52.398;9.646;2023-05-09T00:32:27;101252.38;;;9.99;100.00
8160;BME280;27404;52.398;9.646;2023-05-09T00:34:54;101245.25;;;9.98;100.00
8160;BME280;27404;52.398;9.646;2023-05-09T00:37:19;101246.56;;;9.82;100.00
8160;BME280;27404;52.398;9.646;2023-05-09T00:39:46;101248.44;;;9.88;100.00
8160;BME280;27404;52.398;9.646;2023-05-09T00:42:12;101246.63;;;9.68;100.00
8160;BME280;27404;52.398;9.646;2023-05-09T00:44:37;101242.84;;;9.69;100.00
8160;BME280;27404;52.398;9.646;2023-05-09T00:47:03;101244.31;;;9.65;100.00
8160;BME280;27404;52.398;9.646;2023-05-09T00:49:28;101246.00;;;9.66;100.00
8160;BME280;27404;52.398;9.646;2023-05-09T00:51:54;101239.06;;;9.70;100.00
8160;BME280;27404;52.398;9.646;2023-05-09T00:54:20;101236.94;;;9.72;100.00
8160;BME280;27404;52.398;9.646;2023-05-09T00:56:45;101237.38;;;9.69;100.00
8160;BME280;27404;52.398;9.646;2023-05-09T00:59:11;101228.56;;;9.67;100.00
8160;BME280;27404;52.398;9.646;2023-05-09T01:01:37;101224.22;;;9.53;100.00
8160;BME280;27404;52.398;9.646;2023-05-09T01:04:02;101219.38;;;9.48;100.00
8160;BME280;27404;52.398;9.646;2023-05-09T01:09:41;101208.69;;;9.46;100.00
8160;BME280;27404;52.398;9.646;2023-05-09T01:17:57;101203.22;;;9.53;100.00
8160;BME280;27404;52.398;9.646;2023-05-09T01:20:33;101198.41;;;9.48;100.00
8160;BME280;27404;52.398;9.646;2023-05-09T01:31:45;101190.03;;;9.30;100.00
8160;BME280;27404;52.398;9.646;2023-05-09T01:34:14;101182.28;;;9.27;100.00
8160;BME280;27404;52.398;9.646;2023-05-09T01:36:42;101179.97;;;9.30;100.00
8160;BME280;27404;52.398;9.646;2023-05-09T01:39:12;101179.75;;;9.32;100.00
8160;BME280;27404;52.398;9.646;2023-05-09T01:41:38;101177.06;;;9.25;100.00
8160;BME280;27404;52.398;9.646;2023-05-09T01:44:06;101173.69;;;9.30;100.00
8160;BME280;27404;52.398;9.646;2023-05-09T01:46:33;101169.06;;;9.24;100.00
8160;BME280;27404;52.398;9.646;2023-05-09T01:49:00;101163.22;;;9.13;100.00
8160;BME280;27404;52.398;9.646;2023-05-09T01:51:27;101174.56;;;9.10;100.00
8160;BME280;27404;52.398;9.646;2023-05-09T01:53:56;101162.63;;;9.04;100.00
8160;BME280;27404;52.398;9.646;2023-05-09T01:56:23;101170.56;;;9.06;100.00
8160;BME280;27404;52.398;9.646;2023-05-09T01:58:50;101168.28;;;9.03;100.00
8160;BME280;27404;52.398;9.646;2023-05-09T02:01:18;101166.19;;;8.98;100.00
8160;BME280;27404;52.398;9.646;2023-05-09T02:03:45;101171.22;;;9.01;100.00
8160;BME280;27404;52.398;9.646;2023-05-09T02:06:13;101167.63;;;9.01;100.00
8160;BME280;27404;52.398;9.646;2023-05-09T02:08:40;101163.50;;;8.92;100.00
8160;BME280;27404;52.398;9.646;2023-05-09T02:11:06;101167.88;;;8.86;100.00
8160;BME280;27404;52.398;9.646;2023-05-09T02:13:32;101164.72;;;8.76;100.00
8160;BME280;27404;52.398;9.646;2023-05-09T02:15:58;101157.63;;;8.68;100.00
8160;BME280;27404;52.398;9.646;2023-05-09T02:18:23;101160.97;;;8.83;100.00
8160;BME280;27404;52.398;9.646;2023-05-09T02:20:49;101156.16;;;8.72;100.00
8160;BME280;27404;52.398;9.646;2023-05-09T02:23:14;101164.13;;;8.67;100.00
8160;BME280;27404;52.398;9.646;2023-05-09T02:25:40;101162.44;;;8.66;100.00
8160;BME280;27404;52.398;9.646;2023-05-09T02:28:06;101165.59;;;8.63;100.00
8160;BME280;27404;52.398;9.646;2023-05-09T02:30:37;101171.03;;;8.56;100.00
8160;BME280;27404;52.398;9.646;2023-05-09T02:33:06;101160.56;;;8.53;100.00
8160;BME280;27404;52.398;9.646;2023-05-09T02:35:32;101161.59;;;8.58;100.00
8160;BME280;27404;52.398;9.646;2023-05-09T02:37:59;101159.72;;;8.66;100.00
8160;BME280;27404;52.398;9.646;2023-05-09T02:40:29;101158.44;;;8.68;100.00
8160;BME280;27404;52.398;9.646;2023-05-09T02:42:55;101150.06;;;8.70;100.00
8160;BME280;27404;52.398;9.646;2023-05-09T02:45:21;101158.25;;;8.70;100.00
8160;BME280;27404;52.398;9.646;2023-05-09T02:47:46;101158.88;;;8.79;100.00
8160;BME280;27404;52.398;9.646;2023-05-09T02:50:12;101155.28;;;8.85;100.00
8160;BME280;27404;52.398;9.646;2023-05-09T02:52:37;101156.75;;;8.81;100.00
8160;BME280;27404;52.398;9.646;2023-05-09T02:55:03;101153.19;;;8.87;100.00
8160;BME280;27404;52.398;9.646;2023-05-09T02:57:29;101155.06;;;8.93;100.00
8160;BME280;27404;52.398;9.646;2023-05-09T02:59:55;101148.34;;;8.96;100.00
8160;BME280;27404;52.398;9.646;2023-05-09T03:02:20;101150.69;;;8.92;100.00
8160;BME280;27404;52.398;9.646;2023-05-09T03:04:47;101143.16;;;8.87;100.00
8160;BME280;27404;52.398;9.646;2023-05-09T03:07:13;101141.66;;;8.85;100.00
8160;BME280;27404;52.398;9.646;2023-05-09T03:09:38;101133.50;;;8.78;100.00
8160;BME280;27404;52.398;9.646;2023-05-09T03:12:04;101135.81;;;8.74;100.00
8160;BME280;27404;52.398;9.646;2023-05-09T03:14:29;101142.09;;;8.75;100.00
8160;BME280;27404;52.398;9.646;2023-05-09T03:16:55;101130.75;;;8.85;100.00
8160;BME280;27404;52.398;9.646;2023-05-09T03:19:21;101133.47;;;8.85;100.00
8160;BME280;27404;52.398;9.646;2023-05-09T03:21:46;101134.97;;;8.87;100.00
8160;BME280;27404;52.398;9.646;2023-05-09T03:24:12;101128.03;;;8.92;100.00
8160;BME280;27404;52.398;9.646;2023-05-09T03:26:37;101132.63;;;8.91;100.00
8160;BME280;27404;52.398;9.646;2023-05-09T03:29:03;101125.75;;;8.88;100.00
8160;BME280;27404;52.398;9.646;2023-05-09T03:31:28;101132.63;;;8.98;100.00
8160;BME280;27404;52.398;9.646;2023-05-09T03:33:54;101119.63;;;8.93;100.00
8160;BME280;27404;52.398;9.646;2023-05-09T03:36:20;101119.88;;;8.78;100.00
8160;BME280;27404;52.398;9.646;2023-05-09T03:38:45;101120.91;;;8.70;100.00
8160;BME280;27404;52.398;9.646;2023-05-09T03:41:12;101118.19;;;8.77;100.00
8160;BME280;27404;52.398;9.646;2023-05-09T03:43:37;101121.34;;;8.74;100.00
8160;BME280;27404;52.398;9.646;2023-05-09T03:46:03;101119.66;;;8.66;100.00
8160;BME280;27404;52.398;9.646;2023-05-09T03:48:29;101110.25;;;8.69;100.00
8160;BME280;27404;52.398;9.646;2023-05-09T03:50:54;101115.06;;;8.67;100.00
8160;BME280;27404;52.398;9.646;2023-05-09T03:53:20;101112.97;;;8.69;100.00
8160;BME280;27404;52.398;9.646;2023-05-09T03:55:45;101106.66;;;8.68;100.00
8160;BME280;27404;52.398;9.646;2023-05-09T03:58:11;101104.56;;;8.70;100.00
8160;BME280;27404;52.398;9.646;2023-05-09T04:00:37;101102.06;;;8.69;100.00
8160;BME280;27404;52.398;9.646;2023-05-09T04:03:03;101102.03;;;8.76;100.00
8160;BME280;27404;52.398;9.646;2023-05-09T04:05:28;101098.28;;;8.70;100.00
8160;BME280;27404;52.398;9.646;2023-05-09T04:07:54;101100.59;;;8.66;100.00
8160;BME280;27404;52.398;9.646;2023-05-09T04:10:19;101104.16;;;8.67;100.00
8160;BME280;27404;52.398;9.646;2023-05-09T04:12:45;101100.16;;;8.76;100.00
8160;BME280;27404;52.398;9.646;2023-05-09T04:15:10;101098.03;;;8.85;100.00
8160;BME280;27404;52.398;9.646;2023-05-09T04:17:36;101098.66;;;8.87;100.00
8160;BME280;27404;52.398;9.646;2023-05-09T04:20:01;101110.59;;;8.99;100.00
8160;BME280;27404;52.398;9.646;2023-05-09T04:22:27;101098.84;;;9.58;100.00
8160;BME280;27404;52.398;9.646;2023-05-09T04:24:52;101100.25;;;11.01;100.00
8160;BME280;27404;52.398;9.646;2023-05-09T04:27:18;101090.75;;;12.44;100.00
8160;BME280;27404;52.398;9.646;2023-05-09T04:29:43;101095.34;;;13.97;100.00
8160;BME280;27404;52.398;9.646;2023-05-09T04:32:09;101106.94;;;14.84;95.73
8160;BME280;27404;52.398;9.646;2023-05-09T04:34:36;101109.84;;;15.61;87.79
8160;BME280;27404;52.398;9.646;2023-05-09T04:37:01;101102.66;;;16.75;82.36
8160;BME280;27404;52.398;9.646;2023-05-09T04:39:27;101103.50;;;17.29;77.74
8160;BME280;27404;52.398;9.646;2023-05-09T04:41:52;101097.34;;;17.85;73.21
8160;BME280;27404;52.398;9.646;2023-05-09T04:44:18;101101.25;;;18.15;71.14
8160;BME280;27404;52.398;9.646;2023-05-09T04:46:43;101102.28;;;19.13;66.70
8160;BME280;27404;52.398;9.646;2023-05-09T04:49:09;101100.16;;;19.54;63.48
8160;BME280;27404;52.398;9.646;2023-05-09T04:51:34;101099.34;;;18.11;65.20
8160;BME280;27404;52.398;9.646;2023-05-09T04:53:59;101089.47;;;15.84;73.91
8160;BME280;27404;52.398;9.646;2023-05-09T04:56:25;101100.53;;;14.10;88.74
8160;BME280;27404;52.398;9.646;2023-05-09T04:58:50;101082.50;;;12.92;100.00
8160;BME280;27404;52.398;9.646;2023-05-09T05:01:17;101091.66;;;12.14;100.00
8160;BME280;27404;52.398;9.646;2023-05-09T05:03:43;101081.63;;;11.77;100.00
8160;BME280;27404;52.398;9.646;2023-05-09T05:06:08;101082.66;;;11.64;100.00
8160;BME280;27404;52.398;9.646;2023-05-09T05:08:34;101081.25;;;11.43;100.00
8160;BME280;27404;52.398;9.646;2023-05-09T05:10:59;101078.13;;;11.39;100.00
8160;BME280;27404;52.398;9.646;2023-05-09T05:13:25;101068.53;;;11.49;100.00
8160;BME280;27404;52.398;9.646;2023-05-09T05:15:50;101065.81;;;11.30;100.00
8160;BME280;27404;52.398;9.646;2023-05-09T05:18:16;101063.03;;;11.18;100.00
8160;BME280;27404;52.398;9.646;2023-05-09T05:20:42;101065.31;;;11.21;100.00
8160;BME280;27404;52.398;9.646;2023-05-09T05:23:08;101061.06;;;11.07;100.00
8160;BME280;27404;52.398;9.646;2023-05-09T05:25:34;101066.38;;;11.20;100.00
8160;BME280;27404;52.398;9.646;2023-05-09T05:28:00;101072.03;;;11.37;100.00
8160;BME280;27404;52.398;9.646;2023-05-09T05:30:25;101071.22;;;11.37;100.00
8160;BME280;27404;52.398;9.646;2023-05-09T05:32:51;101072.03;;;11.37;100.00
8160;BME280;27404;52.398;9.646;2023-05-09T05:35:16;101069.88;;;11.58;100.00
8160;BME280;27404;52.398;9.646;2023-05-09T05:37:42;101069.72;;;11.83;100.00
8160;BME280;27404;52.398;9.646;2023-05-09T05:40:08;101062.09;;;12.28;100.00
8160;BME280;27404;52.398;9.646;2023-05-09T05:42:34;101066.44;;;13.24;100.00
8160;BME280;27404;52.398;9.646;2023-05-09T05:45:00;101053.53;;;14.12;100.00
8160;BME280;27404;52.398;9.646;2023-05-09T05:47:32;101056.47;;;15.67;97.90
8160;BME280;27404;52.398;9.646;2023-05-09T05:49:59;101063.88;;;18.64;80.20
8160;BME280;27404;52.398;9.646;2023-05-09T05:52:24;101065.03;;;21.08;65.96
8160;BME280;27404;52.398;9.646;2023-05-09T05:54:51;101068.75;;;22.04;59.97
8160;BME280;27404;52.398;9.646;2023-05-09T05:57:17;101067.69;;;24.01;53.79
8160;BME280;27404;52.398;9.646;2023-05-09T05:59:42;101067.72;;;25.45;48.83
8160;BME280;27404;52.398;9.646;2023-05-09T06:02:08;101070.03;;;26.39;45.27
8160;BME280;27404;52.398;9.646;2023-05-09T06:04:33;101065.00;;;26.63;40.58
8160;BME280;27404;52.398;9.646;2023-05-09T06:06:59;101058.50;;;26.23;41.78
8160;BME280;27404;52.398;9.646;2023-05-09T06:09:24;101053.03;;;26.36;41.32
8160;BME280;27404;52.398;9.646;2023-05-09T06:11:50;101055.97;;;27.26;39.35
8160;BME280;27404;52.398;9.646;2023-05-09T06:14:15;101048.09;;;26.89;38.75
8160;BME280;27404;52.398;9.646;2023-05-09T06:16:41;101055.50;;;27.75;37.13
8160;BME280;27404;52.398;9.646;2023-05-09T06:19:06;101046.25;;;27.53;37.31
8160;BME280;27404;52.398;9.646;2023-05-09T06:21:31;101053.72;;;28.04;37.61
8160;BME280;27404;52.398;9.646;2023-05-09T06:23:58;101057.44;;;29.50;34.34
8160;BME280;27404;52.398;9.646;2023-05-09T06:26:29;101052.84;;;29.98;33.08
8160;BME280;27404;52.398;9.646;2023-05-09T06:28:54;101054.25;;;27.85;35.79
8160;BME280;27404;52.398;9.646;2023-05-09T06:31:20;101052.34;;;27.25;36.40
8160;BME280;27404;52.398;9.646;2023-05-09T06:33:46;101050.56;;;28.27;36.35
8160;BME280;27404;52.398;9.646;2023-05-09T06:36:11;101050.59;;;29.63;33.11
8160;BME280;27404;52.398;9.646;2023-05-09T06:38:36;101054.41;;;31.05;31.78
8160;BME280;27404;52.398;9.646;2023-05-09T06:41:02;101050.69;;;32.11;30.54
8160;BME280;27404;52.398;9.646;2023-05-09T06:43:27;101048.38;;;31.97;29.14
8160;BME280;27404;52.398;9.646;2023-05-09T06:45:53;101031.44;;;30.26;30.36
8160;BME280;27404;52.398;9.646;2023-05-09T06:48:18;101030.75;;;30.45;30.78
8160;BME280;27404;52.398;9.646;2023-05-09T06:50:44;101036.31;;;30.73;30.46
8160;BME280;27404;52.398;9.646;2023-05-09T06:53:09;101020.97;;;30.26;31.38
8160;BME280;27404;52.398;9.646;2023-05-09T06:55:35;101011.28;;;27.42;33.18
8160;BME280;27404;52.398;9.646;2023-05-09T06:58:00;101004.75;;;27.08;35.46
8160;BME280;27404;52.398;9.646;2023-05-09T07:00:26;101006.38;;;27.93;34.53
8160;BME280;27404;52.398;9.646;2023-05-09T07:02:51;101001.22;;;27.19;35.44
8160;BME280;27404;52.398;9.646;2023-05-09T07:05:16;100994.16;;;27.13;36.20
8160;BME280;27404;52.398;9.646;2023-05-09T07:07:42;100999.38;;;27.66;35.89
8160;BME280;27404;52.398;9.646;2023-05-09T07:10:08;101000.47;;;27.74;34.79
8160;BME280;27404;52.398;9.646;2023-05-09T07:12:34;100987.91;;;26.39;37.15
8160;BME280;27404;52.398;9.646;2023-05-09T07:14:59;100984.13;;;26.82;36.45
8160;BME280;27404;52.398;9.646;2023-05-09T07:17:25;100984.16;;;26.17;38.17
8160;BME280;27404;52.398;9.646;2023-05-09T07:19:50;100981.94;;;25.66;38.33
8160;BME280;27404;52.398;9.646;2023-05-09T07:22:16;100986.34;;;25.06;40.58
8160;BME280;27404;52.398;9.646;2023-05-09T07:24:41;100975.56;;;24.41;40.38
8160;BME280;27404;52.398;9.646;2023-05-09T07:27:08;100967.22;;;22.15;45.47
8160;BME280;27404;52.398;9.646;2023-05-09T07:29:34;100965.97;;;21.17;50.37
8160;BME280;27404;52.398;9.646;2023-05-09T07:31:59;100960.56;;;20.58;54.07
8160;BME280;27404;52.398;9.646;2023-05-09T07:34:25;100954.69;;;20.11;55.95
8160;BME280;27404;52.398;9.646;2023-05-09T07:36:50;100951.09;;;19.76;57.56
8160;BME280;27404;52.398;9.646;2023-05-09T07:39:16;100949.53;;;19.64;58.48
8160;BME280;27404;52.398;9.646;2023-05-09T07:41:41;100950.59;;;19.68;59.22
8160;BME280;27404;52.398;9.646;2023-05-09T07:44:07;100953.28;;;18.94;59.98
8160;BME280;27404;52.398;9.646;2023-05-09T07:46:36;100944.72;;;19.35;61.12
8160;BME280;27404;52.398;9.646;2023-05-09T07:49:03;100948.81;;;19.03;62.96
8160;BME280;27404;52.398;9.646;2023-05-09T07:51:28;100932.94;;;19.19;63.29
8160;BME280;27404;52.398;9.646;2023-05-09T07:53:54;100923.03;;;19.03;62.66
8160;BME280;27404;52.398;9.646;2023-05-09T07:56:21;100923.97;;;19.33;65.58
8160;BME280;27404;52.398;9.646;2023-05-09T07:58:47;100923.84;;;19.53;66.24
8160;BME280;27404;52.398;9.646;2023-05-09T08:01:13;100923.41;;;19.36;66.36
8160;BME280;27404;52.398;9.646;2023-05-09T08:03:38;100920.56;;;19.46;64.85
8160;BME280;27404;52.398;9.646;2023-05-09T08:06:04;100921.53;;;19.61;65.19
8160;BME280;27404;52.398;9.646;2023-05-09T08:08:29;100917.56;;;19.37;64.66
8160;BME280;27404;52.398;9.646;2023-05-09T08:10:55;100912.97;;;19.17;65.74
8160;BME280;27404;52.398;9.646;2023-05-09T08:13:21;100907.72;;;19.21;65.68
8160;BME280;27404;52.398;9.646;2023-05-09T08:15:47;100895.47;;;19.22;67.51
8160;BME280;27404;52.398;9.646;2023-05-09T08:18:12;100897.31;;;19.42;67.55
8160;BME280;27404;52.398;9.646;2023-05-09T08:20:38;100894.75;;;19.46;67.56
8160;BME280;27404;52.398;9.646;2023-05-09T08:23:04;100889.75;;;19.48;67.75
8160;BME280;27404;52.398;9.646;2023-05-09T08:25:30;100880.78;;;19.61;69.57
8160;BME280;27404;52.398;9.646;2023-05-09T08:27:56;100878.56;;;19.93;67.13
8160;BME280;27404;52.398;9.646;2023-05-09T08:30:21;100877.72;;;19.92;67.91
8160;BME280;27404;52.398;9.646;2023-05-09T08:32:47;100862.38;;;19.41;68.49
8160;BME280;27404;52.398;9.646;2023-05-09T08:35:12;100865.84;;;19.22;71.98
8160;BME280;27404;52.398;9.646;2023-05-09T08:37:37;100857.94;;;19.40;70.31
8160;BME280;27404;52.398;9.646;2023-05-09T08:40:03;100860.09;;;19.48;70.80
8160;BME280;27404;52.398;9.646;2023-05-09T08:42:32;100856.41;;;19.58;72.11
8160;BME280;27404;52.398;9.646;2023-05-09T08:45:00;100855.84;;;19.86;70.35
8160;BME280;27404;52.398;9.646;2023-05-09T08:47:26;100850.88;;;19.82;69.79
8160;BME280;27404;52.398;9.646;2023-05-09T08:49:53;100862.88;;;19.78;70.85
8160;BME280;27404;52.398;9.646;2023-05-09T08:52:19;100854.84;;;19.76;68.57
8160;BME280;27404;52.398;9.646;2023-05-09T08:54:45;100858.88;;;19.89;70.26
8160;BME280;27404;52.398;9.646;2023-05-09T08:57:11;100851.41;;;19.90;70.00
8160;BME280;27404;52.398;9.646;2023-05-09T08:59:41;100840.16;;;20.05;70.75
8160;BME280;27404;52.398;9.646;2023-05-09T09:02:06;100840.47;;;19.98;71.81
8160;BME280;27404;52.398;9.646;2023-05-09T09:04:33;100842.06;;;20.05;70.94
8160;BME280;27404;52.398;9.646;2023-05-09T09:06:58;100836.44;;;19.86;71.35
8160;BME280;27404;52.398;9.646;2023-05-09T09:09:25;100837.75;;;19.93;71.39
8160;BME280;27404;52.398;9.646;2023-05-09T09:11:51;100835.34;;;20.11;73.64
8160;BME280;27404;52.398;9.646;2023-05-09T09:14:23;100836.44;;;20.34;72.49
8160;BME280;27404;52.398;9.646;2023-05-09T09:16:50;100826.72;;;20.56;69.45
8160;BME280;27404;52.398;9.646;2023-05-09T09:19:17;100834.63;;;20.68;68.16
8160;BME280;27404;52.398;9.646;2023-05-09T09:21:45;100834.16;;;20.85;66.61
8160;BME280;27404;52.398;9.646;2023-05-09T09:24:20;100823.31;;;20.83;64.87
8160;BME280;27404;52.398;9.646;2023-05-09T09:26:48;100823.44;;;20.92;64.80
8160;BME280;27404;52.398;9.646;2023-05-09T09:29:14;100824.50;;;20.96;64.20
8160;BME280;27404;52.398;9.646;2023-05-09T09:31:43;100818.75;;;20.93;62.07
8160;BME280;27404;52.398;9.646;2023-05-09T09:34:09;100814.06;;;21.07;64.88
8160;BME280;27404;52.398;9.646;2023-05-09T09:36:34;100807.75;;;21.01;61.33
8160;BME280;27404;52.398;9.646;2023-05-09T09:39:03;100807.91;;;21.10;63.33
8160;BME280;27404;52.398;9.646;2023-05-09T09:41:34;100796.03;;;21.05;61.88
8160;BME280;27404;52.398;9.646;2023-05-09T09:44:11;100796.03;;;21.05;65.66
8160;BME280;27404;52.398;9.646;2023-05-09T09:46:47;100797.91;;;21.09;64.75
8160;BME280;27404;52.398;9.646;2023-05-09T09:49:14;100790.94;;;21.26;66.27
8160;BME280;27404;52.398;9.646;2023-05-09T09:51:40;100783.47;;;21.40;64.39
8160;BME280;27404;52.398;9.646;2023-05-09T09:54:10;100777.00;;;21.45;64.00
8160;BME280;27404;52.398;9.646;2023-05-09T09:56:49;100772.09;;;21.23;66.11
8160;BME280;27404;52.398;9.646;2023-05-09T09:59:18;100769.19;;;21.14;63.90
8160;BME280;27404;52.398;9.646;2023-05-09T10:02:04;100763.22;;;21.21;64.49
8160;BME280;27404;52.398;9.646;2023-05-09T10:04:38;100752.88;;;21.26;65.33
8160;BME280;27404;52.398;9.646;2023-05-09T10:07:08;100753.88;;;21.64;65.45
8160;BME280;27404;52.398;9.646;2023-05-09T10:09:35;100742.19;;;21.62;64.83
8160;BME280;27404;52.398;9.646;2023-05-09T10:12:06;100748.88;;;21.60;65.69
8160;BME280;27404;52.398;9.646;2023-05-09T10:14:36;100736.97;;;21.74;65.24
8160;BME280;27404;52.398;9.646;2023-05-09T10:17:03;100738.81;;;22.07;65.12
8160;BME280;27404;52.398;9.646;2023-05-09T10:19:30;100736.66;;;22.03;64.28
8160;BME280;27404;52.398;9.646;2023-05-09T10:22:04;100725.94;;;21.97;66.56
8160;BME280;27404;52.398;9.646;2023-05-09T10:24:33;100727.47;;;21.89;62.03
8160;BME280;27404;52.398;9.646;2023-05-09T10:27:03;100730.03;;;21.99;64.91
8160;BME280;27404;52.398;9.646;2023-05-09T10:29:34;100729.13;;;21.90;61.87
8160;BME280;27404;52.398;9.646;2023-05-09T10:32:28;100717.56;;;22.11;63.15
8160;BME280;27404;52.398;9.646;2023-05-09T10:34:53;100712.22;;;22.00;63.62
8160;BME280;27404;52.398;9.646;2023-05-09T10:37:22;100711.22;;;21.82;62.33
8160;BME280;27404;52.398;9.646;2023-05-09T10:39:50;100710.06;;;21.83;64.22
8160;BME280;27404;52.398;9.646;2023-05-09T10:42:18;100698.91;;;22.11;64.59
8160;BME280;27404;52.398;9.646;2023-05-09T10:44:45;100702.09;;;22.18;61.73
8160;BME280;27404;52.398;9.646;2023-05-09T10:47:14;100694.38;;;22.01;61.32
8160;BME280;27404;52.398;9.646;2023-05-09T10:49:40;100685.63;;;22.08;61.08
8160;BME280;27404;52.398;9.646;2023-05-09T10:52:06;100687.09;;;21.78;61.46
8160;BME280;27404;52.398;9.646;2023-05-09T10:54:35;100684.09;;;21.88;62.17
8160;BME280;27404;52.398;9.646;2023-05-09T10:57:00;100676.91;;;21.73;61.30
8160;BME280;27404;52.398;9.646;2023-05-09T10:59:36;100661.03;;;21.73;61.60
8160;BME280;27404;52.398;9.646;2023-05-09T11:02:02;100661.13;;;21.82;61.67
8160;BME280;27404;52.398;9.646;2023-05-09T11:04:29;100662.84;;;22.06;62.31
8160;BME280;27404;52.398;9.646;2023-05-09T11:06:56;100657.22;;;22.20;60.13
8160;BME280;27404;52.398;9.646;2023-05-09T11:09:28;100648.81;;;22.11;60.12
8160;BME280;27404;52.398;9.646;2023-05-09T11:11:56;100649.31;;;21.99;61.30
8160;BME280;27404;52.398;9.646;2023-05-09T11:14:49;100644.09;;;22.21;60.83
8160;BME280;27404;52.398;9.646;2023-05-09T11:22:20;100631.28;;;22.33;58.50
8160;BME280;27404;52.398;9.646;2023-05-09T11:24:48;100639.81;;;22.37;60.56
8160;BME280;27404;52.398;9.646;2023-05-09T11:27:22;100627.56;;;22.61;58.57
8160;BME280;27404;52.398;9.646;2023-05-09T11:29:58;100618.25;;;22.20;57.25
8160;BME280;27404;52.398;9.646;2023-05-09T11:32:30;100623.53;;;21.71;57.61
8160;BME280;27404;52.398;9.646;2023-05-09T11:35:09;100633.38;;;21.91;58.19
8160;BME280;27404;52.398;9.646;2023-05-09T11:40:22;100618.03;;;21.94;58.26
8160;BME280;27404;52.398;9.646;2023-05-09T11:42:50;100613.19;;;22.22;59.24
8160;BME280;27404;52.398;9.646;2023-05-09T11:45:17;100610.91;;;22.24;58.68
8160;BME280;27404;52.398;9.646;2023-05-09T11:47:44;100610.66;;;22.57;59.85
8160;BME280;27404;52.398;9.646;2023-05-09T11:50:11;100600.72;;;22.65;58.87
8160;BME280;27404;52.398;9.646;2023-05-09T11:52:38;100598.81;;;23.15;60.09
8160;BME280;27404;52.398;9.646;2023-05-09T11:57:35;100607.50;;;23.54;57.58
8160;BME280;27404;52.398;9.646;2023-05-09T12:00:01;100598.22;;;23.85;56.21
8160;BME280;27404;52.398;9.646;2023-05-09T12:02:29;100592.06;;;23.07;58.23
8160;BME280;27404;52.398;9.646;2023-05-09T12:04:54;100591.47;;;23.19;58.17
8160;BME280;27404;52.398;9.646;2023-05-09T12:07:20;100583.03;;;23.42;58.64
8160;BME280;27404;52.398;9.646;2023-05-09T12:09:48;100601.34;;;23.25;56.26
8160;BME280;27404;52.398;9.646;2023-05-09T12:12:13;100589.69;;;23.23;56.78
8160;BME280;27404;52.398;9.646;2023-05-09T12:14:40;100580.94;;;23.07;56.64
8160;BME280;27404;52.398;9.646;2023-05-09T12:17:08;100578.44;;;23.05;56.27
8160;BME280;27404;52.398;9.646;2023-05-09T12:19:34;100591.91;;;23.52;56.19
8160;BME280;27404;52.398;9.646;2023-05-09T12:22:01;100572.53;;;23.47;55.02
8160;BME280;27404;52.398;9.646;2023-05-09T12:24:28;100564.00;;;23.52;56.22
8160;BME280;27404;52.398;9.646;2023-05-09T12:26:55;100574.84;;;23.72;57.99
8160;BME280;27404;52.398;9.646;2023-05-09T12:29:21;100573.06;;;23.76;55.50
8160;BME280;27404;52.398;9.646;2023-05-09T12:31:47;100565.31;;;23.55;55.55
8160;BME280;27404;52.398;9.646;2023-05-09T12:34:14;100556.31;;;23.93;55.21
8160;BME280;27404;52.398;9.646;2023-05-09T12:36:43;100559.28;;;24.32;53.96
8160;BME280;27404;52.398;9.646;2023-05-09T12:39:18;100552.22;;;23.82;54.87
8160;BME280;27404;52.398;9.646;2023-05-09T12:41:49;100546.28;;;23.75;55.65
8160;BME280;27404;52.398;9.646;2023-05-09T12:44:23;100545.13;;;23.49;56.47
8160;BME280;27404;52.398;9.646;2023-05-09T12:47:00;100554.16;;;23.55;56.96
8160;BME280;27404;52.398;9.646;2023-05-09T12:49:28;100551.41;;;23.90;56.48
8160;BME280;27404;52.398;9.646;2023-05-09T12:51:55;100543.19;;;24.12;55.00
8160;BME280;27404;52.398;9.646;2023-05-09T12:54:26;100543.31;;;24.33;55.05
8160;BME280;27404;52.398;9.646;2023-05-09T12:56:52;100541.72;;;24.23;54.84
8160;BME280;27404;52.398;9.646;2023-05-09T12:59:25;100528.41;;;23.67;54.88
8160;BME280;27404;52.398;9.646;2023-05-09T13:01:58;100536.63;;;23.05;57.48
8160;BME280;27404;52.398;9.646;2023-05-09T13:04:25;100533.06;;;22.73;57.42
8160;BME280;27404;52.398;9.646;2023-05-09T13:06:53;100524.75;;;22.82;58.29
8160;BME280;27404;52.398;9.646;2023-05-09T13:09:20;100529.69;;;22.85;57.64
8160;BME280;27404;52.398;9.646;2023-05-09T13:11:46;100531.09;;;23.14;56.09
8160;BME280;27404;52.398;9.646;2023-05-09T13:14:13;100525.06;;;23.30;56.43
8160;BME280;27404;52.398;9.646;2023-05-09T13:16:39;100519.19;;;23.66;55.30
8160;BME280;27404;52.398;9.646;2023-05-09T13:19:04;100516.06;;;23.59;56.85
8160;BME280;27404;52.398;9.646;2023-05-09T13:21:31;100514.59;;;23.53;58.39
8160;BME280;27404;52.398;9.646;2023-05-09T13:23:56;100517.88;;;23.38;57.55
8160;BME280;27404;52.398;9.646;2023-05-09T13:26:22;100505.69;;;23.25;57.89